sensor_id;sensor_type;location;lat;lon;timestamp;temperature;humidity
19435;DHT22;9853;50.848;4.108;2023-02-15T03:13:44;6.20;99.90
19435;DHT22;9853;50.848;4.108;2023-02-15T03:56:31;5.40;99.90
19435;DHT22;9853;50.848;4.108;2023-02-15T04:05:44;5.50;99.90
19435;DHT22;9853;50.848;4.108;2023-02-15T08:06:04;6.00;99.90
19435;DHT22;9853;50.848;4.108;2023-02-15T17:54:57;10.50;99.90
19435;DHT22;9853;50.848;4.108;2023-02-15T17:57:30;10.50;99.90
19435;DHT22;9853;50.848;4.108;2023-02-15T17:59:48;10.50;99.90
19435;DHT22;9853;50.848;4.108;2023-02-15T18:02:20;10.30;99.90
19435;DHT22;9853;50.848;4.108;2023-02-15T18:04:44;10.30;99.90
19435;DHT22;9853;50.848;4.108;2023-02-15T18:07:04;10.20;99.90
19435;DHT22;9853;50.848;4.108;2023-02-15T18:09:24;10.10;99.90
19435;DHT22;9853;50.848;4.108;2023-02-15T18:11:46;10.10;99.90
19435;DHT22;9853;50.848;4.108;2023-02-15T18:13:52;10.00;99.90
19435;DHT22;9853;50.848;4.108;2023-02-15T18:16:03;9.90;99.90
19435;DHT22;9853;50.848;4.108;2023-02-15T18:18:04;10.10;99.90
19435;DHT22;9853;50.848;4.108;2023-02-15T18:20:18;10.20;99.90
19435;DHT22;9853;50.848;4.108;2023-02-15T18:22:29;10.40;99.90
19435;DHT22;9853;50.848;4.108;2023-02-15T18:24:34;10.40;99.90
19435;DHT22;9853;50.848;4.108;2023-02-15T18:26:40;10.40;99.90
19435;DHT22;9853;50.848;4.108;2023-02-15T18:29:12;10.10;99.90
19435;DHT22;9853;50.848;4.108;2023-02-15T18:31:14;9.90;99.90
19435;DHT22;9853;50.848;4.108;2023-02-15T18:33:28;9.90;99.90
19435;DHT22;9853;50.848;4.108;2023-02-15T18:35:54;10.10;99.90
19435;DHT22;9853;50.848;4.108;2023-02-15T18:38:11;10.10;99.90
19435;DHT22;9853;50.848;4.108;2023-02-15T18:40:32;10.00;99.90
19435;DHT22;9853;50.848;4.108;2023-02-15T18:42:34;10.00;99.90
19435;DHT22;9853;50.848;4.108;2023-02-15T18:44:39;9.80;99.90
19435;DHT22;9853;50.848;4.108;2023-02-15T18:46:40;9.90;99.90
19435;DHT22;9853;50.848;4.108;2023-02-15T18:48:51;9.90;99.90
19435;DHT22;9853;50.848;4.108;2023-02-15T18:51:25;9.90;99.90
19435;DHT22;9853;50.848;4.108;2023-02-15T18:53:34;9.90;99.90
19435;DHT22;9853;50.848;4.108;2023-02-15T18:55:45;9.70;99.90
19435;DHT22;9853;50.848;4.108;2023-02-15T18:57:57;9.60;99.90
19435;DHT22;9853;50.848;4.108;2023-02-15T19:00:17;9.60;99.90
19435;DHT22;9853;50.848;4.108;2023-02-15T19:02:38;9.60;99.90
19435;DHT22;9853;50.848;4.108;2023-02-15T19:05:17;9.50;99.90
19435;DHT22;9853;50.848;4.108;2023-02-15T19:07:30;9.50;99.90
19435;DHT22;9853;50.848;4.108;2023-02-15T19:09:32;9.60;99.90
19435;DHT22;9853;50.848;4.108;2023-02-15T19:11:36;9.50;99.90
19435;DHT22;9853;50.848;4.108;2023-02-15T19:13:37;9.50;99.90
19435;DHT22;9853;50.848;4.108;2023-02-15T19:15:57;9.40;99.90
19435;DHT22;9853;50.848;4.108;2023-02-15T19:18:05;9.40;99.90
19435;DHT22;9853;50.848;4.108;2023-02-15T19:20:36;9.50;99.90
19435;DHT22;9853;50.848;4.108;2023-02-15T19:22:40;9.20;99.90
19435;DHT22;9853;50.848;4.108;2023-02-15T19:24:45;9.20;99.90
19435;DHT22;9853;50.848;4.108;2023-02-15T19:29:06;9.20;99.90
19435;DHT22;9853;50.848;4.108;2023-02-15T19:31:11;9.20;99.90
19435;DHT22;9853;50.848;4.108;2023-02-15T19:33:18;9.20;99.90
19435;DHT22;9853;50.848;4.108;2023-02-15T19:35:21;9.30;99.90
19435;DHT22;9853;50.848;4.108;2023-02-15T19:37:29;9.30;99.90
19435;DHT22;9853;50.848;4.108;2023-02-15T19:39:37;9.10;99.90
19435;DHT22;9853;50.848;4.108;2023-02-15T19:41:45;8.90;99.90
19435;DHT22;9853;50.848;4.108;2023-02-15T19:43:50;8.70;99.90
19435;DHT22;9853;50.848;4.108;2023-02-15T19:45:53;8.70;99.90
19435;DHT22;9853;50.848;4.108;2023-02-15T19:47:54;8.60;99.90
19435;DHT22;9853;50.848;4.108;2023-02-15T19:49:55;8.70;99.90
19435;DHT22;9853;50.848;4.108;2023-02-15T19:52:09;8.80;99.90
19435;DHT22;9853;50.848;4.108;2023-02-15T19:54:28;8.90;99.90
19435;DHT22;9853;50.848;4.108;2023-02-15T19:56:30;8.90;99.90
19435;DHT22;9853;50.848;4.108;2023-02-15T19:58:31;9.00;99.90
19435;DHT22;9853;50.848;4.108;2023-02-15T20:00:33;9.00;99.90
19435;DHT22;9853;50.848;4.108;2023-02-15T20:02:36;9.00;99.90
19435;DHT22;9853;50.848;4.108;2023-02-15T20:04:37;8.90;99.90
19435;DHT22;9853;50.848;4.108;2023-02-15T20:06:40;9.00;99.90
19435;DHT22;9853;50.848;4.108;2023-02-15T20:08:44;8.90;99.90
19435;DHT22;9853;50.848;4.108;2023-02-15T20:10:45;8.80;99.90
19435;DHT22;9853;50.848;4.108;2023-02-15T20:12:46;8.70;99.90
19435;DHT22;9853;50.848;4.108;2023-02-15T20:14:47;8.70;99.90
19435;DHT22;9853;50.848;4.108;2023-02-15T20:16:49;8.60;99.90
19435;DHT22;9853;50.848;4.108;2023-02-15T20:18:51;8.40;99.90
19435;DHT22;9853;50.848;4.108;2023-02-15T20:20:53;8.20;99.90
19435;DHT22;9853;50.848;4.108;2023-02-15T20:22:54;8.10;99.90
19435;DHT22;9853;50.848;4.108;2023-02-15T20:24:55;8.30;99.90
19435;DHT22;9853;50.848;4.108;2023-02-15T20:26:56;8.10;99.90
19435;DHT22;9853;50.848;4.108;2023-02-15T20:28:58;8.00;99.90
19435;DHT22;9853;50.848;4.108;2023-02-15T20:30:59;8.20;99.90
19435;DHT22;9853;50.848;4.108;2023-02-15T20:33:02;8.30;99.90
19435;DHT22;9853;50.848;4.108;2023-02-15T20:35:04;8.10;99.90
19435;DHT22;9853;50.848;4.108;2023-02-15T20:37:23;8.00;99.90
19435;DHT22;9853;50.848;4.108;2023-02-15T20:39:28;8.10;99.90
19435;DHT22;9853;50.848;4.108;2023-02-15T20:41:29;7.90;99.90
19435;DHT22;9853;50.848;4.108;2023-02-15T20:43:36;7.90;99.90
19435;DHT22;9853;50.848;4.108;2023-02-15T20:45:37;7.90;99.90
19435;DHT22;9853;50.848;4.108;2023-02-15T20:47:37;8.20;99.90
19435;DHT22;9853;50.848;4.108;2023-02-15T20:49:38;8.30;99.90
19435;DHT22;9853;50.848;4.108;2023-02-15T20:51:42;8.30;99.90
19435;DHT22;9853;50.848;4.108;2023-02-15T20:53:44;8.20;99.90
19435;DHT22;9853;50.848;4.108;2023-02-15T20:55:47;8.10;99.90
19435;DHT22;9853;50.848;4.108;2023-02-15T20:57:48;8.10;99.90
19435;DHT22;9853;50.848;4.108;2023-02-15T20:59:49;8.10;99.90
19435;DHT22;9853;50.848;4.108;2023-02-15T21:01:53;8.00;99.90
19435;DHT22;9853;50.848;4.108;2023-02-15T21:04:00;8.10;99.90
19435;DHT22;9853;50.848;4.108;2023-02-15T21:06:04;8.20;99.90
19435;DHT22;9853;50.848;4.108;2023-02-15T21:08:20;8.20;99.90
19435;DHT22;9853;50.848;4.108;2023-02-15T21:10:36;8.20;99.90
19435;DHT22;9853;50.848;4.108;2023-02-15T21:12:49;8.20;99.90
19435;DHT22;9853;50.848;4.108;2023-02-15T21:14:50;8.30;99.90
19435;DHT22;9853;50.848;4.108;2023-02-15T21:16:51;8.40;99.90
19435;DHT22;9853;50.848;4.108;2023-02-15T21:18:53;8.20;99.90
19435;DHT22;9853;50.848;4.108;2023-02-15T21:20:57;7.90;99.90
19435;DHT22;9853;50.848;4.108;2023-02-15T21:23:04;7.70;99.90
19435;DHT22;9853;50.848;4.108;2023-02-15T21:25:06;7.70;99.90
19435;DHT22;9853;50.848;4.108;2023-02-15T21:27:11;7.60;99.90
19435;DHT22;9853;50.848;4.108;2023-02-15T21:29:21;7.80;99.90
19435;DHT22;9853;50.848;4.108;2023-02-15T21:31:24;7.70;99.90
19435;DHT22;9853;50.848;4.108;2023-02-15T21:33:25;7.70;99.90
19435;DHT22;9853;50.848;4.108;2023-02-15T21:35:27;7.70;99.90
19435;DHT22;9853;50.848;4.108;2023-02-15T21:37:35;7.90;99.90
19435;DHT22;9853;50.848;4.108;2023-02-15T21:39:40;7.90;99.90
19435;DHT22;9853;50.848;4.108;2023-02-15T21:41:48;7.70;99.90
19435;DHT22;9853;50.848;4.108;2023-02-15T21:44:23;7.60;99.90
19435;DHT22;9853;50.848;4.108;2023-02-15T21:46:46;7.50;99.90
19435;DHT22;9853;50.848;4.108;2023-02-15T21:49:26;7.50;99.90
19435;DHT22;9853;50.848;4.108;2023-02-15T21:51:35;7.50;99.90
19435;DHT22;9853;50.848;4.108;2023-02-15T21:54:00;7.50;99.90
19435;DHT22;9853;50.848;4.108;2023-02-15T21:56:14;7.50;99.90
19435;DHT22;9853;50.848;4.108;2023-02-15T21:58:24;7.40;99.90
19435;DHT22;9853;50.848;4.108;2023-02-15T22:00:31;7.30;99.90
19435;DHT22;9853;50.848;4.108;2023-02-15T22:02:41;7.40;99.90
19435;DHT22;9853;50.848;4.108;2023-02-15T22:04:43;7.40;99.90
19435;DHT22;9853;50.848;4.108;2023-02-15T22:06:44;7.40;99.90
19435;DHT22;9853;50.848;4.108;2023-02-15T22:08:57;7.40;99.90
19435;DHT22;9853;50.848;4.108;2023-02-15T22:10:59;7.30;99.90
19435;DHT22;9853;50.848;4.108;2023-02-15T22:13:25;7.20;99.90
19435;DHT22;9853;50.848;4.108;2023-02-15T22:15:51;7.40;99.90
19435;DHT22;9853;50.848;4.108;2023-02-15T22:18:30;7.60;99.90
19435;DHT22;9853;50.848;4.108;2023-02-15T22:20:55;7.70;99.90
19435;DHT22;9853;50.848;4.108;2023-02-15T22:23:04;7.80;99.90
19435;DHT22;9853;50.848;4.108;2023-02-15T22:25:52;7.90;99.90
19435;DHT22;9853;50.848;4.108;2023-02-15T22:28:14;7.70;99.90
19435;DHT22;9853;50.848;4.108;2023-02-15T22:30:26;7.60;99.90
19435;DHT22;9853;50.848;4.108;2023-02-15T22:32:33;7.70;99.90
19435;DHT22;9853;50.848;4.108;2023-02-15T22:34:39;7.50;99.90
19435;DHT22;9853;50.848;4.108;2023-02-15T22:37:02;7.60;99.90
19435;DHT22;9853;50.848;4.108;2023-02-15T22:39:03;7.40;99.90
19435;DHT22;9853;50.848;4.108;2023-02-15T22:41:04;7.40;99.90
19435;DHT22;9853;50.848;4.108;2023-02-15T22:43:06;7.30;99.90
19435;DHT22;9853;50.848;4.108;2023-02-15T22:45:23;7.40;99.90
19435;DHT22;9853;50.848;4.108;2023-02-15T22:47:31;7.40;99.90
19435;DHT22;9853;50.848;4.108;2023-02-15T22:49:35;7.30;99.90
19435;DHT22;9853;50.848;4.108;2023-02-15T22:51:54;7.10;99.90
19435;DHT22;9853;50.848;4.108;2023-02-15T22:53:55;7.20;99.90
19435;DHT22;9853;50.848;4.108;2023-02-15T22:56:00;7.20;99.90
19435;DHT22;9853;50.848;4.108;2023-02-15T22:58:41;7.20;99.90
19435;DHT22;9853;50.848;4.108;2023-02-15T23:00:42;7.30;99.90
19435;DHT22;9853;50.848;4.108;2023-02-15T23:02:44;7.40;99.90
19435;DHT22;9853;50.848;4.108;2023-02-15T23:07:27;7.50;99.90
19435;DHT22;9853;50.848;4.108;2023-02-15T23:09:38;7.60;99.90
19435;DHT22;9853;50.848;4.108;2023-02-15T23:15:34;7.70;99.90
19435;DHT22;9853;50.848;4.108;2023-02-15T23:17:56;7.70;99.90
19435;DHT22;9853;50.848;4.108;2023-02-15T23:20:17;7.70;99.90
19435;DHT22;9853;50.848;4.108;2023-02-15T23:22:50;7.70;99.90
19435;DHT22;9853;50.848;4.108;2023-02-15T23:24:53;7.70;99.90
19435;DHT22;9853;50.848;4.108;2023-02-15T23:27:04;7.50;99.90
19435;DHT22;9853;50.848;4.108;2023-02-15T23:29:41;7.50;99.90
19435;DHT22;9853;50.848;4.108;2023-02-15T23:31:54;7.40;99.90
19435;DHT22;9853;50.848;4.108;2023-02-15T23:34:32;7.50;99.90
19435;DHT22;9853;50.848;4.108;2023-02-15T23:36:56;7.40;99.90
19435;DHT22;9853;50.848;4.108;2023-02-15T23:41:44;7.40;99.90
19435;DHT22;9853;50.848;4.108;2023-02-15T23:44:07;7.30;99.90
19435;DHT22;9853;50.848;4.108;2023-02-15T23:46:40;7.40;99.90
19435;DHT22;9853;50.848;4.108;2023-02-15T23:48:44;7.10;99.90
19435;DHT22;9853;50.848;4.108;2023-02-15T23:50:54;7.00;99.90
19435;DHT22;9853;50.848;4.108;2023-02-15T23:52:58;7.20;99.90
19435;DHT22;9853;50.848;4.108;2023-02-15T23:55:11;7.10;99.90
19435;DHT22;9853;50.848;4.108;2023-02-15T23:57:12;7.00;99.90
19435;DHT22;9853;50.848;4.108;2023-02-15T23:59:19;7.00;99.90
